Main page
METAR-TAF:

METAR-TAF

Airports :

Jumandy Airport

Tena, Ecuador

latitude: 01-03-35S, longitude: 77-35-00W, elevation: 376 m

Current weather observation

The report was made 12 hours and 6 minutes ago, at 21:00 UTC
Wind 3 kt from the East/Northeast
Temperature 31°C
Humidity 63%
Pressure 1010 hPa
Visibility 10 km or more
Scattered clouds at a height of 2300 ft

METAR: SEJD 172100Z 06003KT 9999 SCT023 31/23 Q1010 RMK A2983

Time: 04:06 (09:06 UTC)


TAF: missing

Weather observations and forecasts of more than 4000 airports (METAR and TAF reports).

The available stations are represented by yellow and red dots on the map.

Hover mouse over dot to see the name of the station.

Then click to see weather observations and forecasts.

To change the map : click on the green buttons with a black cross to zoom in, on the green button with a dash to zoom out, or on the green arrows for adjacent maps.


METAR-TAF: